createdAt,value
2023-04-21T04:28:27.911Z,23.70
2023-04-21T04:29:31.066Z,22.89
2023-04-21T04:30:34.165Z,23.09
2023-04-21T04:31:36.171Z,22.98
2023-04-21T04:32:39.689Z,23.27
2023-04-21T04:33:45.283Z,22.65
2023-04-21T04:34:48.742Z,22.66
2023-04-21T04:35:51.341Z,22.10
2023-04-21T04:36:53.985Z,22.24
2023-04-21T04:37:57.458Z,22.08
2023-04-21T04:38:59.740Z,21.38
2023-04-21T04:40:02.743Z,21.94
2023-04-21T04:41:05.167Z,21.53
2023-04-21T04:42:10.881Z,20.82
2023-04-21T04:43:21.606Z,21.30
2023-04-21T04:44:25.960Z,19.99
2023-04-21T04:45:33.060Z,19.76
2023-04-21T04:46:35.514Z,19.88
2023-04-21T04:47:38.248Z,19.98
2023-04-21T04:48:40.788Z,20.10
2023-04-21T04:49:42.975Z,20.12
2023-04-21T04:50:49.638Z,20.60
2023-04-21T04:51:51.781Z,20.84
2023-04-21T04:52:53.755Z,20.97
2023-04-21T04:53:56.918Z,20.29
2023-04-21T04:55:02.565Z,20.62
2023-04-21T04:56:06.507Z,20.61
2023-04-21T04:57:08.920Z,21.29
2023-04-21T04:58:26.298Z,20.47
2023-04-21T04:59:36.030Z,20.42
2023-04-21T05:00:41.836Z,20.64
2023-04-21T05:01:46.131Z,20.37
2023-04-21T05:02:50.233Z,20.25
2023-04-21T05:03:52.370Z,19.55
2023-04-21T05:04:59.297Z,19.58
2023-04-21T05:07:26.244Z,20.69
2023-04-21T05:08:43.488Z,19.91
2023-04-21T05:10:19.550Z,19.16
2023-04-21T05:11:23.190Z,18.42
2023-04-21T05:12:27.927Z,19.16
2023-04-21T05:13:29.939Z,19.22
2023-04-21T05:14:34.840Z,19.65
2023-04-21T05:16:03.342Z,19.26
2023-04-21T05:18:23.463Z,18.56
2023-04-21T05:19:26.081Z,18.17
2023-04-21T05:21:00.927Z,18.59
2023-04-21T05:22:14.090Z,19.23
2023-04-21T05:23:20.566Z,18.67
2023-04-21T05:24:33.724Z,17.71
2023-04-21T05:27:18.442Z,18.15
2023-04-21T05:28:20.339Z,18.26
2023-04-21T05:29:22.379Z,19.19
2023-04-21T05:30:24.511Z,18.97
2023-04-21T05:31:27.206Z,19.26
2023-04-21T05:32:31.478Z,19.17
2023-04-21T05:34:00.668Z,19.11
2023-04-21T05:35:07.856Z,18.64
2023-04-21T05:36:11.028Z,18.19
2023-04-21T05:38:08.094Z,17.48
2023-04-21T05:39:13.223Z,18.51
2023-04-21T05:43:53.037Z,19.21
2023-04-21T05:44:56.008Z,19.23
2023-04-21T05:46:09.284Z,17.86
2023-04-21T05:47:14.749Z,18.05
2023-04-21T05:48:41.821Z,17.17
2023-04-21T05:49:56.068Z,16.25
2023-04-21T05:51:20.262Z,16.28
2023-04-21T05:52:30.045Z,16.77
2023-04-21T05:54:59.046Z,17.49
2023-04-21T05:59:17.543Z,18.56
2023-04-21T06:00:19.870Z,18.76
2023-04-21T06:01:21.741Z,18.38
2023-04-21T06:02:23.846Z,17.40
2023-04-21T06:03:26.106Z,16.48
2023-04-21T06:04:33.973Z,16.89
2023-04-21T06:05:38.820Z,17.29
2023-04-21T06:06:40.769Z,17.44
2023-04-21T06:07:42.673Z,17.31
2023-04-21T06:08:44.658Z,17.60
2023-04-21T06:09:50.472Z,17.09
2023-04-21T06:10:53.197Z,16.67
2023-04-21T06:11:55.008Z,16.74
2023-04-21T06:12:57.249Z,16.05
2023-04-21T06:14:02.348Z,17.11
2023-04-21T06:15:05.165Z,17.07
2023-04-21T06:16:07.040Z,16.60
2023-04-21T06:17:12.228Z,17.37
2023-04-21T06:18:15.242Z,16.97
2023-04-21T06:19:17.364Z,17.19
2023-04-21T06:20:19.663Z,18.38
2023-04-21T06:21:21.545Z,17.97
2023-04-21T06:22:23.767Z,17.77
2023-04-21T06:23:25.880Z,18.31
2023-04-21T06:24:32.800Z,18.95
2023-04-21T06:25:36.523Z,18.01
2023-04-21T06:26:38.480Z,18.62
2023-04-21T06:27:40.820Z,18.50
2023-04-21T06:28:42.849Z,19.00
2023-04-21T06:29:45.457Z,18.94
2023-04-21T06:30:49.842Z,18.65
2023-04-21T06:31:52.953Z,18.58
2023-04-21T06:32:56.338Z,18.46
2023-04-21T06:33:58.449Z,19.33
2023-04-21T06:35:00.710Z,18.93
2023-04-21T06:36:08.127Z,19.05
2023-04-21T06:37:10.384Z,19.32
2023-04-21T06:41:59.078Z,19.50
2023-04-21T06:43:02.864Z,19.00
2023-04-21T06:44:05.055Z,19.14
2023-04-21T06:45:07.715Z,19.34
2023-04-21T06:46:09.932Z,19.31
2023-04-21T06:47:13.804Z,19.18
2023-04-21T06:48:16.257Z,19.09
2023-04-21T06:49:21.877Z,18.92
2023-04-21T06:50:49.078Z,19.07
2023-04-21T06:51:53.345Z,19.85
2023-04-21T06:52:58.037Z,19.69
2023-04-21T06:54:02.229Z,19.76
2023-04-21T06:55:04.747Z,19.32
2023-04-21T06:56:07.324Z,19.69
2023-04-21T06:57:21.784Z,19.68
2023-04-21T06:58:23.922Z,19.64
2023-04-21T06:59:26.096Z,18.44
2023-04-21T07:00:29.247Z,18.41
2023-04-21T07:01:31.074Z,19.39
2023-04-21T07:02:33.129Z,19.38
2023-04-21T07:03:36.617Z,19.44
2023-04-21T07:04:38.730Z,19.08
2023-04-21T07:05:42.868Z,18.97
2023-04-21T07:06:44.934Z,19.13
2023-04-21T07:07:46.849Z,18.47
2023-04-21T07:08:48.902Z,19.37
2023-04-21T07:09:50.916Z,18.71
2023-04-21T07:10:53.218Z,18.88
2023-04-21T07:11:55.987Z,19.23
2023-04-21T07:12:58.054Z,19.02
2023-04-21T07:14:02.298Z,18.51
2023-04-21T07:15:05.515Z,19.07
2023-04-21T07:16:08.777Z,18.97
2023-04-21T07:17:11.156Z,19.57
2023-04-21T07:18:13.363Z,19.79
2023-04-21T07:19:16.566Z,19.83
2023-04-21T07:20:23.198Z,19.10
2023-04-21T07:21:26.062Z,18.68
2023-04-21T07:22:28.011Z,18.72
2023-04-21T07:23:29.917Z,19.05
2023-04-21T07:24:35.594Z,19.13
2023-04-21T07:25:39.821Z,19.24
2023-04-21T07:26:43.651Z,19.20
2023-04-21T07:27:45.869Z,18.86
2023-04-21T07:28:49.826Z,19.21
2023-04-21T07:29:52.006Z,19.06
2023-04-21T07:30:54.405Z,17.94
2023-04-21T07:31:58.644Z,18.19
2023-04-21T07:33:00.934Z,18.77
2023-04-21T07:34:02.985Z,18.78
2023-04-21T07:35:07.772Z,18.38
2023-04-21T07:36:11.666Z,18.47
2023-04-21T07:38:00.168Z,18.93
2023-04-21T07:39:02.241Z,17.91
2023-04-21T07:40:04.768Z,18.21
2023-04-21T07:41:07.205Z,18.56
2023-04-21T07:42:09.684Z,18.42
2023-04-21T07:43:11.685Z,18.51
2023-04-21T07:48:46.447Z,17.62
2023-04-21T07:49:51.589Z,17.20
2023-04-21T07:52:22.365Z,17.40
2023-04-21T07:53:28.037Z,17.46
2023-04-21T07:56:16.598Z,18.47
2023-04-21T07:57:34.520Z,18.43
2023-04-21T07:58:45.899Z,17.87
2023-04-21T07:59:48.451Z,17.83
2023-04-21T08:00:55.035Z,17.81
2023-04-21T08:01:58.790Z,18.42
2023-04-21T08:03:51.685Z,18.63
2023-04-21T08:10:39.217Z,17.98
2023-04-21T08:11:41.207Z,17.77
2023-04-21T08:12:44.712Z,17.33
2023-04-21T08:13:46.753Z,17.00
2023-04-21T08:14:52.095Z,17.09
2023-04-21T08:16:19.521Z,17.15
2023-04-21T08:17:22.011Z,17.39
2023-04-21T08:18:24.041Z,17.63
2023-04-21T08:19:28.254Z,17.04
2023-04-21T08:20:30.911Z,17.63
2023-04-21T08:21:34.216Z,18.42
2023-04-21T08:22:48.617Z,18.64
2023-04-21T08:23:52.154Z,19.18
2023-04-21T08:24:54.395Z,18.70
2023-04-21T08:26:02.158Z,18.56
2023-04-21T08:27:04.581Z,19.03
2023-04-21T08:28:06.682Z,19.17
2023-04-21T08:29:10.764Z,19.25
2023-04-21T08:30:13.377Z,20.15
2023-04-21T08:31:17.948Z,19.62
2023-04-21T08:32:24.779Z,19.30
2023-04-21T08:33:26.848Z,19.47
2023-04-21T08:34:30.144Z,19.55
2023-04-21T08:35:32.383Z,19.38
2023-04-21T08:36:35.453Z,19.95
2023-04-21T08:37:38.787Z,20.34
2023-04-21T08:38:44.502Z,19.98
2023-04-21T08:39:46.868Z,20.61
2023-04-21T08:40:50.801Z,19.71
2023-04-21T08:41:53.314Z,20.04
2023-04-21T08:42:58.113Z,20.20
2023-04-21T08:44:01.171Z,19.58
2023-04-21T08:45:04.555Z,20.06
2023-04-21T08:46:08.405Z,20.10
2023-04-21T08:47:13.953Z,20.62
2023-04-21T08:48:21.414Z,19.80
2023-04-21T08:49:36.919Z,20.21
2023-04-21T08:50:44.991Z,20.48
2023-04-21T08:51:47.816Z,20.83
2023-04-21T08:52:49.661Z,21.41
2023-04-21T08:53:52.272Z,21.00
2023-04-21T08:54:58.791Z,21.02
2023-04-21T08:57:15.796Z,21.46
2023-04-21T08:58:19.522Z,20.99
2023-04-21T08:59:27.408Z,20.67
2023-04-21T09:00:33.827Z,19.86
2023-04-21T09:02:15.757Z,19.87
2023-04-21T09:03:28.911Z,20.38
2023-04-21T09:04:41.285Z,20.86
2023-04-21T09:05:44.120Z,21.39
2023-04-21T09:06:46.540Z,21.86
2023-04-21T09:07:48.780Z,21.76
2023-04-21T09:09:10.045Z,21.91
2023-04-21T09:10:23.946Z,22.14
2023-04-21T09:11:33.891Z,22.22
2023-04-21T09:12:41.145Z,22.27
2023-04-21T09:13:44.376Z,21.57
2023-04-21T09:14:46.801Z,21.56
2023-04-21T09:15:54.996Z,22.43
2023-04-21T09:17:04.235Z,22.76
2023-04-21T09:18:16.076Z,23.36
2023-04-21T09:19:44.734Z,23.57
2023-04-21T09:20:49.555Z,23.90
2023-04-21T09:21:55.717Z,24.14
2023-04-21T09:23:06.030Z,24.92
2023-04-21T09:24:09.504Z,24.32
2023-04-21T09:25:16.892Z,24.33
2023-04-21T09:26:29.872Z,24.24
2023-04-21T09:27:35.485Z,24.25
2023-04-21T09:28:54.834Z,24.16
2023-04-21T09:51:36.888Z,26.06
2023-04-21T09:52:47.252Z,25.19
2023-04-21T09:53:53.482Z,24.99
2023-04-21T09:55:04.377Z,25.15
2023-04-21T09:56:15.035Z,24.96
2023-04-21T15:29:30.370Z,28.71
2023-04-21T18:11:33.910Z,36.86
2023-04-21T18:40:31.473Z,37.69
2023-04-21T18:46:26.858Z,38.12
2023-04-21T18:48:52.879Z,38.58
2023-04-21T18:51:01.046Z,38.73
2023-04-21T18:56:26.155Z,39.13
2023-04-21T18:57:37.760Z,39.14
2023-04-21T18:59:29.811Z,39.43
2023-04-21T19:01:31.967Z,39.43
